Terminal Aerodrome Forecast
Issued by NWS

Home | Current Version | Previous Version | Text Only | Print | Product List | Glossary On
Versions: 1 2 3 4 5 6 7 8 9 10 11 12 13 14 15 16 17 18 19 20
000
FTUS46 KSTO 212300
TAFRDD
TAF
KRDD 212333Z 2200/2224 VRB03KT P6SM BKN025 OVC060
     FM220700 18008KT 6SM -RA BR OVC030
     FM221200 20011KT 5SM -RA OVC015
     FM221700 20007KT P6SM OVC050=

USA.gov is the U.S. government's official web portal to all federal, state and local government web resources and services.